createdAt,value
2023-02-08T00:00:56.486Z,11.95
2023-02-08T00:03:42.357Z,13.40
2023-02-08T00:06:27.778Z,13.38
2023-02-08T00:09:13.979Z,14.50
2023-02-08T00:11:59.526Z,13.45
2023-02-08T00:14:45.242Z,14.40
2023-02-08T00:17:31.162Z,14.50
2023-02-08T00:20:16.921Z,15.02
2023-02-08T00:23:02.671Z,14.70
2023-02-08T00:25:47.994Z,14.15
2023-02-08T00:28:34.079Z,13.45
2023-02-08T00:31:19.626Z,12.10
2023-02-08T00:34:05.726Z,13.65
2023-02-08T00:36:51.615Z,13.85
2023-02-08T00:39:36.814Z,14.07
2023-02-08T00:42:23.143Z,15.20
2023-02-08T00:45:08.989Z,17.00
2023-02-08T00:47:54.564Z,15.05
2023-02-08T00:50:40.314Z,15.80
2023-02-08T00:53:25.867Z,15.27
2023-02-08T00:56:13.522Z,14.57
2023-02-08T00:58:59.198Z,14.30
2023-02-08T01:01:44.828Z,14.55
2023-02-08T01:04:30.391Z,15.10
2023-02-08T01:07:15.852Z,13.13
2023-02-08T01:10:01.657Z,12.23
2023-02-08T01:12:47.067Z,11.35
2023-02-08T01:15:32.875Z,13.13
2023-02-08T01:18:19.566Z,13.15
2023-02-08T01:21:14.259Z,11.15
2023-02-08T01:24:00.138Z,11.55
2023-02-08T01:26:47.204Z,11.85
2023-02-08T01:29:33.083Z,13.30
2023-02-08T01:32:18.493Z,11.60
2023-02-08T01:35:03.829Z,10.68
2023-02-08T01:37:49.337Z,11.32
2023-02-08T01:40:35.220Z,11.32
2023-02-08T01:43:35.544Z,11.18
2023-02-08T01:46:21.163Z,12.07
2023-02-08T01:49:17.437Z,10.70
2023-02-08T01:52:19.695Z,11.77
2023-02-08T01:55:16.689Z,11.10
2023-02-08T01:58:06.367Z,11.75
2023-02-08T02:00:51.764Z,11.48
2023-02-08T02:03:37.757Z,11.82
2023-02-08T02:06:26.822Z,11.30
2023-02-08T02:09:26.378Z,11.48
2023-02-08T02:12:13.017Z,12.05
2023-02-08T02:14:59.684Z,11.00
2023-02-08T02:17:45.577Z,13.25
2023-02-08T02:20:50.984Z,14.70
2023-02-08T02:24:13.084Z,12.73
2023-02-08T02:27:14.228Z,14.45
2023-02-08T02:30:25.758Z,14.23
2023-02-08T02:33:16.901Z,14.50
2023-02-08T02:36:11.803Z,13.35
2023-02-08T02:39:14.103Z,13.45
2023-02-08T02:42:51.153Z,12.20
2023-02-08T02:46:13.476Z,12.50
2023-02-08T02:49:02.503Z,10.57
2023-02-08T02:52:08.469Z,13.60
2023-02-08T02:54:59.158Z,10.85
2023-02-08T02:57:47.722Z,11.27
2023-02-08T03:00:33.696Z,13.68
2023-02-08T03:03:24.210Z,13.10
2023-02-08T03:06:20.561Z,13.40
2023-02-08T03:09:38.870Z,12.43
2023-02-08T03:12:36.675Z,13.80
2023-02-08T03:15:52.501Z,12.68
2023-02-08T03:18:56.049Z,12.32
2023-02-08T03:21:56.764Z,12.38
2023-02-08T03:24:58.598Z,10.70
2023-02-08T03:27:55.717Z,12.35
2023-02-08T03:31:03.665Z,12.98
2023-02-08T03:33:55.655Z,12.65
2023-02-08T03:37:03.509Z,11.88
2023-02-08T03:39:53.591Z,11.23
2023-02-08T03:42:39.996Z,11.90
2023-02-08T03:45:31.370Z,11.90
2023-02-08T03:48:18.917Z,12.30
2023-02-08T03:51:05.992Z,12.48
2023-02-08T03:53:55.348Z,13.38
2023-02-08T03:56:50.582Z,13.98
2023-02-08T03:59:41.225Z,14.93
2023-02-08T04:02:29.865Z,13.93
2023-02-08T04:05:15.317Z,13.07
2023-02-08T04:08:00.619Z,13.60
2023-02-08T04:10:47.077Z,13.05
2023-02-08T04:13:32.547Z,12.10
2023-02-08T04:16:17.964Z,12.95
2023-02-08T04:19:03.856Z,13.30
2023-02-08T04:21:49.238Z,13.23
2023-02-08T04:24:34.497Z,12.48
2023-02-08T04:27:20.170Z,11.73
2023-02-08T04:30:06.328Z,13.25
2023-02-08T04:32:52.072Z,14.73
2023-02-08T04:35:37.462Z,13.77
2023-02-08T04:38:23.003Z,13.15
2023-02-08T04:41:08.572Z,13.27
2023-02-08T04:43:54.252Z,15.07
2023-02-08T04:46:39.981Z,15.63
2023-02-08T04:49:25.487Z,15.10
2023-02-08T04:52:11.023Z,15.23
2023-02-08T04:54:56.869Z,15.50
2023-02-08T04:57:42.110Z,14.57
2023-02-08T05:00:28.290Z,14.88
2023-02-08T05:03:15.217Z,14.13
2023-02-08T05:06:01.020Z,12.98
2023-02-08T05:08:46.623Z,11.98
2023-02-08T05:11:32.088Z,12.05
2023-02-08T05:14:17.841Z,12.73
2023-02-08T05:17:03.411Z,13.02
2023-02-08T05:19:49.045Z,13.40
2023-02-08T05:22:34.634Z,12.60
2023-02-08T05:25:20.076Z,12.27
2023-02-08T05:28:06.127Z,13.48
2023-02-08T05:30:51.836Z,14.02
2023-02-08T05:33:37.175Z,14.45
2023-02-08T05:36:23.324Z,12.88
2023-02-08T05:39:08.792Z,12.27
2023-02-08T05:41:54.244Z,12.43
2023-02-08T05:44:40.137Z,12.98
2023-02-08T05:47:25.785Z,12.57
2023-02-08T05:50:11.707Z,12.73
2023-02-08T05:52:57.488Z,12.18
2023-02-08T05:55:48.533Z,12.85
2023-02-08T05:58:34.498Z,13.63
2023-02-08T06:01:21.105Z,13.07
2023-02-08T06:04:06.370Z,12.60
2023-02-08T06:06:51.918Z,14.82
2023-02-08T06:09:37.920Z,13.10
2023-02-08T06:12:23.401Z,12.68
2023-02-08T06:15:09.593Z,12.63
2023-02-08T06:17:55.559Z,12.43
2023-02-08T06:20:41.638Z,11.95
2023-02-08T06:23:27.560Z,11.10
2023-02-08T06:26:13.013Z,12.55
2023-02-08T06:29:00.056Z,14.30
2023-02-08T06:31:45.710Z,12.65
2023-02-08T06:34:32.104Z,13.88
2023-02-08T06:37:18.194Z,13.63
2023-02-08T06:40:04.686Z,14.88
2023-02-08T06:42:50.556Z,14.80
2023-02-08T06:45:36.498Z,14.35
2023-02-08T06:48:21.671Z,15.25
2023-02-08T06:51:07.363Z,15.27
2023-02-08T06:53:52.938Z,15.13
2023-02-08T06:56:38.740Z,19.63
2023-02-08T06:59:24.502Z,15.85
2023-02-08T07:02:13.531Z,16.05
2023-02-08T07:04:58.657Z,22.15
2023-02-08T07:07:44.495Z,22.17
2023-02-08T07:10:29.857Z,18.15
2023-02-08T07:13:15.456Z,17.92
2023-02-08T07:16:00.955Z,17.45
2023-02-08T07:18:46.859Z,17.55
2023-02-08T07:21:32.328Z,16.98
2023-02-08T07:24:17.519Z,16.63
2023-02-08T07:27:03.381Z,16.13
2023-02-08T07:29:48.627Z,15.30
2023-02-08T07:32:34.936Z,14.80
2023-02-08T07:35:20.903Z,15.43
2023-02-08T07:38:06.737Z,15.73
2023-02-08T07:40:52.211Z,15.35
2023-02-08T07:43:39.372Z,15.88
2023-02-08T07:46:25.303Z,15.27
2023-02-08T07:49:11.039Z,15.88
2023-02-08T07:51:56.394Z,16.40
2023-02-08T07:54:42.042Z,16.80
2023-02-08T07:57:27.890Z,15.60
2023-02-08T08:00:15.111Z,15.45
2023-02-08T08:03:00.669Z,15.88
2023-02-08T08:05:46.301Z,14.77
2023-02-08T08:08:31.626Z,16.08
2023-02-08T08:11:18.489Z,15.20
2023-02-08T08:14:03.970Z,14.35
2023-02-08T08:16:49.515Z,16.77
2023-02-08T08:19:35.198Z,16.10
2023-02-08T08:22:21.039Z,15.95
2023-02-08T08:25:06.658Z,17.40
2023-02-08T08:27:52.442Z,15.40
2023-02-08T08:30:38.060Z,16.00
2023-02-08T08:33:23.677Z,17.63
2023-02-08T08:36:09.450Z,18.15
2023-02-08T08:38:54.951Z,17.35
2023-02-08T08:41:40.434Z,17.10
2023-02-08T08:44:26.379Z,15.38
2023-02-08T08:47:12.591Z,16.67
2023-02-08T08:49:58.266Z,16.35
2023-02-08T08:52:44.055Z,14.73
2023-02-08T08:55:29.444Z,20.15
2023-02-08T08:58:14.977Z,14.05
2023-02-08T09:01:00.929Z,16.20
2023-02-08T09:03:46.600Z,15.45
2023-02-08T09:06:32.306Z,16.48
2023-02-08T09:09:18.438Z,14.80
2023-02-08T09:12:04.620Z,13.20
2023-02-08T09:14:50.037Z,14.80
2023-02-08T09:17:35.763Z,14.40
2023-02-08T09:20:21.696Z,14.95
2023-02-08T09:23:07.493Z,14.48
2023-02-08T09:25:52.965Z,13.90
2023-02-08T09:28:39.467Z,14.40
2023-02-08T09:31:27.888Z,15.63
2023-02-08T09:34:13.632Z,13.27
2023-02-08T09:36:58.933Z,14.02
2023-02-08T09:39:45.053Z,13.98
2023-02-08T09:42:44.375Z,12.40
2023-02-08T09:45:59.209Z,12.73
2023-02-08T09:48:45.726Z,13.60
2023-02-08T09:51:38.741Z,17.33
2023-02-08T09:54:36.393Z,14.90
2023-02-08T09:57:25.842Z,11.98
2023-02-08T10:00:32.040Z,13.50
2023-02-08T10:03:45.176Z,12.50
2023-02-08T10:06:31.200Z,12.07
2023-02-08T10:09:21.856Z,12.95
2023-02-08T10:12:39.138Z,11.13
2023-02-08T10:15:54.147Z,12.43
2023-02-08T10:18:54.924Z,12.20
2023-02-08T10:22:19.963Z,11.63
2023-02-08T10:25:27.999Z,11.68
2023-02-08T10:28:25.408Z,11.32
2023-02-08T10:31:33.499Z,10.50
2023-02-08T10:34:58.252Z,10.27
2023-02-08T10:37:44.778Z,11.15
2023-02-08T10:40:38.184Z,9.75
2023-02-08T10:43:35.952Z,10.45
2023-02-08T10:46:38.138Z,10.73
2023-02-08T10:49:32.968Z,10.77
2023-02-08T10:52:18.586Z,13.48
2023-02-08T10:55:16.134Z,13.50
2023-02-08T10:58:05.722Z,11.55
2023-02-08T11:00:52.305Z,10.70
2023-02-08T11:03:39.705Z,11.63
2023-02-08T11:06:28.137Z,13.35
2023-02-08T11:09:43.146Z,13.15
2023-02-08T11:12:28.873Z,11.98
2023-02-08T11:15:36.862Z,11.98
2023-02-08T11:18:38.954Z,11.95
2023-02-08T11:21:34.594Z,12.82
2023-02-08T11:24:35.969Z,13.07
2023-02-08T11:27:34.148Z,12.02
2023-02-08T11:30:23.220Z,11.93
2023-02-08T11:33:20.414Z,10.23
2023-02-08T11:36:08.465Z,11.43
2023-02-08T11:38:54.653Z,10.50
2023-02-08T11:41:44.510Z,11.45
2023-02-08T11:44:42.218Z,11.52
2023-02-08T11:47:37.201Z,11.07
2023-02-08T11:50:32.614Z,11.02
2023-02-08T11:53:27.822Z,10.25
2023-02-08T11:56:22.243Z,11.98
2023-02-08T11:59:21.145Z,13.40
2023-02-08T12:02:29.419Z,11.40
2023-02-08T12:05:22.831Z,11.73
2023-02-08T12:08:18.334Z,11.65
2023-02-08T12:11:29.294Z,11.15
2023-02-08T12:14:27.293Z,13.38
2023-02-08T12:17:30.688Z,10.30
2023-02-08T12:20:34.661Z,11.88
2023-02-08T12:23:37.312Z,10.10
2023-02-08T12:27:04.191Z,10.98
2023-02-08T12:30:05.676Z,8.88
2023-02-08T12:33:15.990Z,9.75
2023-02-08T12:36:27.296Z,10.40
2023-02-08T12:40:21.872Z,10.95
2023-02-08T12:43:26.234Z,11.23
2023-02-08T12:46:17.793Z,10.20
2023-02-08T12:49:27.994Z,9.75
2023-02-08T12:52:22.085Z,10.43
2023-02-08T12:55:38.624Z,10.35
2023-02-08T12:58:40.411Z,9.65
2023-02-08T13:01:37.715Z,9.07
2023-02-08T13:04:46.128Z,9.65
2023-02-08T13:07:38.726Z,9.13
2023-02-08T13:13:21.219Z,10.35
2023-02-08T13:16:21.186Z,8.77
2023-02-08T13:19:18.730Z,8.80
2023-02-08T13:22:05.630Z,9.40
2023-02-08T13:25:05.008Z,8.65
2023-02-08T13:27:52.429Z,9.40
2023-02-08T13:30:40.314Z,7.93
2023-02-08T13:34:00.462Z,7.35
2023-02-08T13:36:52.622Z,7.43
2023-02-08T13:39:43.934Z,7.13
2023-02-08T13:42:43.078Z,7.53
2023-02-08T13:45:34.142Z,7.88
2023-02-08T13:48:20.551Z,6.00
2023-02-08T13:51:06.515Z,6.70
2023-02-08T13:54:12.806Z,6.55
2023-02-08T13:56:58.192Z,5.57
2023-02-08T13:59:46.428Z,7.45
2023-02-08T14:02:31.647Z,5.20
2023-02-08T14:05:47.002Z,6.32
2023-02-08T14:08:57.559Z,5.80
2023-02-08T14:11:51.457Z,5.22
2023-02-08T14:14:37.892Z,5.80
2023-02-08T14:17:29.547Z,5.30
2023-02-08T14:20:39.647Z,6.65
2023-02-08T14:23:27.763Z,5.90
2023-02-08T14:26:23.895Z,5.78
2023-02-08T14:29:21.744Z,5.45
2023-02-08T14:32:07.552Z,5.95
2023-02-08T14:35:22.099Z,5.93
2023-02-08T14:38:19.290Z,6.05
2023-02-08T14:41:04.938Z,8.18
2023-02-08T14:43:50.085Z,7.65
2023-02-08T14:46:41.937Z,8.43
2023-02-08T14:49:29.457Z,7.78
2023-02-08T14:52:25.927Z,7.53
2023-02-08T14:55:26.335Z,9.55
2023-02-08T14:58:21.529Z,10.63
2023-02-08T15:01:20.407Z,8.90
2023-02-08T15:04:06.327Z,9.15
2023-02-08T15:07:03.766Z,10.23
2023-02-08T15:09:49.355Z,9.20
2023-02-08T15:12:38.148Z,7.97
2023-02-08T15:15:33.847Z,8.48
2023-02-08T15:18:25.148Z,9.32
2023-02-08T15:21:17.975Z,8.88
2023-02-08T15:24:05.812Z,8.43
2023-02-08T15:26:53.998Z,8.57
2023-02-08T15:29:44.815Z,8.55
2023-02-08T15:32:30.730Z,8.52
2023-02-08T15:35:20.090Z,9.63
2023-02-08T15:38:11.936Z,8.85
2023-02-08T15:41:00.701Z,11.10
2023-02-08T15:43:46.242Z,8.40
2023-02-08T15:46:34.369Z,8.77
2023-02-08T15:49:31.846Z,9.02
2023-02-08T15:52:20.087Z,8.75
2023-02-08T15:55:12.624Z,10.00
2023-02-08T15:58:03.082Z,8.50
2023-02-08T16:00:49.097Z,8.65
2023-02-08T16:03:36.675Z,9.77
2023-02-08T16:06:31.206Z,7.82
2023-02-08T16:09:25.223Z,8.82
2023-02-08T16:12:20.529Z,7.97
2023-02-08T16:15:06.568Z,9.45
2023-02-08T16:17:52.112Z,7.22
2023-02-08T16:20:40.340Z,8.30
2023-02-08T16:23:32.032Z,8.55
2023-02-08T16:26:27.552Z,8.65
2023-02-08T16:29:40.200Z,7.97
2023-02-08T16:32:32.987Z,8.90
2023-02-08T16:38:11.045Z,8.35
2023-02-08T16:41:13.240Z,8.40
2023-02-08T16:44:22.003Z,8.30
2023-02-08T16:47:28.096Z,7.15
2023-02-08T16:50:20.879Z,7.45
2023-02-08T16:53:06.239Z,6.75
2023-02-08T16:55:51.628Z,7.97
2023-02-08T16:58:37.330Z,7.28
2023-02-08T17:01:24.365Z,7.88
2023-02-08T17:04:09.709Z,8.55
2023-02-08T17:06:55.527Z,8.35
2023-02-08T17:09:42.314Z,9.43
2023-02-08T17:12:27.722Z,7.68
2023-02-08T17:15:13.322Z,8.23
2023-02-08T17:17:58.614Z,7.78
2023-02-08T17:20:44.531Z,7.68
2023-02-08T17:23:29.887Z,7.57
2023-02-08T17:26:27.231Z,7.18
2023-02-08T17:29:12.813Z,7.95
2023-02-08T17:31:58.023Z,7.03
2023-02-08T17:34:43.791Z,8.05
2023-02-08T17:37:31.782Z,8.15
2023-02-08T17:40:17.869Z,6.97
2023-02-08T17:43:04.595Z,8.45
2023-02-08T17:45:49.937Z,9.20
2023-02-08T17:48:35.694Z,9.00
2023-02-08T17:51:23.888Z,7.53
2023-02-08T17:54:11.173Z,8.70
2023-02-08T17:56:58.744Z,8.10
2023-02-08T17:59:44.189Z,7.57
2023-02-08T18:02:30.124Z,8.50
2023-02-08T18:05:33.970Z,8.23
2023-02-08T18:08:19.629Z,8.10
2023-02-08T18:11:06.893Z,8.32
2023-02-08T18:13:54.383Z,8.70
2023-02-08T18:16:40.170Z,8.77
2023-02-08T18:19:25.590Z,10.50
2023-02-08T18:22:11.613Z,8.52
2023-02-08T18:24:57.377Z,9.13
2023-02-08T18:27:43.012Z,9.27
2023-02-08T18:30:28.361Z,11.77
2023-02-08T18:33:14.046Z,7.70
2023-02-08T18:35:59.485Z,9.82
2023-02-08T18:38:47.224Z,9.50
2023-02-08T18:41:32.574Z,8.52
2023-02-08T18:44:19.266Z,8.80
2023-02-08T18:47:07.857Z,8.48
2023-02-08T18:49:54.932Z,8.80
2023-02-08T18:52:40.313Z,9.00
2023-02-08T18:55:25.571Z,8.88
2023-02-08T18:58:11.309Z,8.75
2023-02-08T19:01:09.091Z,7.90
2023-02-08T19:03:54.415Z,7.72
2023-02-08T19:06:40.201Z,9.18
2023-02-08T19:09:25.472Z,8.25
2023-02-08T19:12:15.306Z,7.65
2023-02-08T19:15:00.972Z,9.23
2023-02-08T19:17:47.941Z,8.43
2023-02-08T19:20:37.854Z,9.63
2023-02-08T19:23:23.521Z,8.10
2023-02-08T19:26:22.340Z,7.35
2023-02-08T19:29:13.541Z,8.10
2023-02-08T19:31:59.529Z,8.50
2023-02-08T19:34:44.842Z,8.23
2023-02-08T19:37:30.175Z,8.63
2023-02-08T19:40:16.105Z,7.72
2023-02-08T19:43:01.320Z,7.53
2023-02-08T19:45:47.636Z,7.90
2023-02-08T19:48:33.158Z,6.25
2023-02-08T19:51:19.499Z,8.00
2023-02-08T19:54:08.444Z,7.35
2023-02-08T19:56:54.844Z,9.55
2023-02-08T19:59:40.915Z,6.65
2023-02-08T20:02:27.393Z,8.85
2023-02-08T20:05:12.646Z,9.57
2023-02-08T20:08:00.933Z,8.75
2023-02-08T20:10:48.166Z,9.95
2023-02-08T20:13:33.542Z,8.25
2023-02-08T20:16:20.350Z,7.78
2023-02-08T20:19:06.055Z,8.45
2023-02-08T20:21:52.334Z,9.38
2023-02-08T20:24:37.891Z,11.27
2023-02-08T20:27:23.690Z,9.63
2023-02-08T20:30:09.366Z,10.68
2023-02-08T20:32:55.488Z,11.18
2023-02-08T20:35:41.561Z,10.20
2023-02-08T20:38:27.211Z,10.65
2023-02-08T20:41:15.046Z,9.85
2023-02-08T20:44:01.076Z,8.90
2023-02-08T20:46:46.863Z,9.32
2023-02-08T20:49:32.700Z,10.95
2023-02-08T20:52:18.873Z,9.65
2023-02-08T20:55:04.551Z,8.45
2023-02-08T20:57:50.384Z,8.00
2023-02-08T21:00:42.195Z,9.10
2023-02-08T21:03:28.853Z,10.02
2023-02-08T21:06:18.907Z,8.43
2023-02-08T21:09:08.067Z,8.23
2023-02-08T21:11:53.663Z,8.43
2023-02-08T21:14:39.493Z,8.43
2023-02-08T21:17:25.149Z,8.23
2023-02-08T21:20:11.975Z,8.68
2023-02-08T21:22:57.429Z,9.10
2023-02-08T21:25:44.502Z,8.80
2023-02-08T21:28:30.692Z,8.20
2023-02-08T21:31:20.069Z,11.00
2023-02-08T21:34:06.626Z,7.45
2023-02-08T21:36:52.096Z,8.02
2023-02-08T21:39:37.556Z,8.43
2023-02-08T21:42:23.107Z,9.32
2023-02-08T21:45:09.883Z,8.02
2023-02-08T21:47:56.451Z,6.95
2023-02-08T21:51:00.829Z,7.00
2023-02-08T21:54:04.772Z,7.78
2023-02-08T21:56:50.590Z,8.65
2023-02-08T21:59:37.677Z,8.02
2023-02-08T22:02:28.878Z,7.47
2023-02-08T22:05:14.415Z,8.20
2023-02-08T22:08:00.001Z,8.75
2023-02-08T22:10:56.817Z,7.88
2023-02-08T22:13:44.847Z,7.75
2023-02-08T22:16:30.590Z,7.63
2023-02-08T22:19:16.126Z,7.93
2023-02-08T22:22:02.256Z,7.45
2023-02-08T22:24:47.411Z,7.13
2023-02-08T22:27:33.111Z,6.95
2023-02-08T22:30:19.526Z,7.47
2023-02-08T22:33:04.846Z,8.50
2023-02-08T22:35:50.484Z,6.57
2023-02-08T22:38:36.418Z,7.70
2023-02-08T22:41:22.079Z,8.23
2023-02-08T22:44:07.448Z,7.13
2023-02-08T22:46:53.218Z,8.13
2023-02-08T22:49:38.921Z,7.32
2023-02-08T22:52:25.780Z,7.25
2023-02-08T22:55:12.218Z,7.85
2023-02-08T22:57:57.725Z,5.93
2023-02-08T23:00:44.974Z,7.50
2023-02-08T23:03:30.421Z,5.65
2023-02-08T23:06:17.439Z,6.93
2023-02-08T23:09:04.410Z,7.90
2023-02-08T23:11:50.745Z,7.80
2023-02-08T23:14:36.300Z,6.97
2023-02-08T23:17:21.748Z,7.28
2023-02-08T23:20:08.030Z,7.70
2023-02-08T23:22:53.817Z,7.05
2023-02-08T23:25:40.318Z,7.80
2023-02-08T23:28:26.122Z,7.68
2023-02-08T23:31:13.644Z,6.78
2023-02-08T23:34:00.621Z,7.65
2023-02-08T23:36:46.497Z,8.52
2023-02-08T23:39:35.385Z,8.93
2023-02-08T23:42:26.806Z,8.27
2023-02-08T23:45:12.122Z,7.13
2023-02-08T23:47:57.629Z,8.40
2023-02-08T23:50:43.270Z,9.88
2023-02-08T23:53:30.277Z,7.25
2023-02-08T23:56:18.854Z,8.48
2023-02-08T23:59:08.098Z,9.57
